sensor_id;sensor_type;location;lat;lon;timestamp;noise_LAeq;noise_LA_min;noise_LA_max;noise_LA01;noise_LA95
72160;Laerm;60045;51.792;10.938;2023-08-21T00:01:36;34.25;30.38;43.89;;
72160;Laerm;60045;51.792;10.938;2023-08-21T00:04:02;34.27;30.83;45.78;;
72160;Laerm;60045;51.792;10.938;2023-08-21T00:06:28;35.78;31.02;55.83;;
72160;Laerm;60045;51.792;10.938;2023-08-21T00:08:54;35.33;31.97;37.42;;
72160;Laerm;60045;51.792;10.938;2023-08-21T00:11:20;35.16;31.70;37.42;;
72160;Laerm;60045;51.792;10.938;2023-08-21T00:13:46;35.62;31.04;39.91;;
72160;Laerm;60045;51.792;10.938;2023-08-21T00:16:13;33.93;30.57;36.01;;
72160;Laerm;60045;51.792;10.938;2023-08-21T00:18:39;33.96;30.58;37.64;;
72160;Laerm;60045;51.792;10.938;2023-08-21T00:21:05;35.31;32.12;37.63;;
72160;Laerm;60045;51.792;10.938;2023-08-21T00:23:30;36.22;30.04;56.30;;
72160;Laerm;60045;51.792;10.938;2023-08-21T00:25:56;50.19;29.71;64.14;;
72160;Laerm;60045;51.792;10.938;2023-08-21T00:28:22;33.96;30.68;42.59;;
72160;Laerm;60045;51.792;10.938;2023-08-21T00:30:48;32.96;30.76;44.47;;
72160;Laerm;60045;51.792;10.938;2023-08-21T00:33:14;31.27;29.00;48.29;;
72160;Laerm;60045;51.792;10.938;2023-08-21T00:35:39;49.99;30.86;66.55;;
72160;Laerm;60045;51.792;10.938;2023-08-21T00:38:05;32.92;29.47;50.35;;
72160;Laerm;60045;51.792;10.938;2023-08-21T00:40:31;32.07;29.72;35.21;;
72160;Laerm;60045;51.792;10.938;2023-08-21T00:42:57;32.60;30.66;35.25;;
72160;Laerm;60045;51.792;10.938;2023-08-21T00:45:22;54.52;29.29;72.07;;
72160;Laerm;60045;51.792;10.938;2023-08-21T00:47:48;32.50;28.76;38.26;;
72160;Laerm;60045;51.792;10.938;2023-08-21T00:50:14;34.27;29.30;40.21;;
72160;Laerm;60045;51.792;10.938;2023-08-21T00:52:40;30.68;28.38;40.08;;
72160;Laerm;60045;51.792;10.938;2023-08-21T00:55:08;32.26;28.92;35.67;;
72160;Laerm;60045;51.792;10.938;2023-08-21T00:57:35;33.21;29.90;36.64;;
72160;Laerm;60045;51.792;10.938;2023-08-21T01:00:01;33.17;28.74;40.88;;
72160;Laerm;60045;51.792;10.938;2023-08-21T01:02:27;33.57;29.88;38.50;;
72160;Laerm;60045;51.792;10.938;2023-08-21T01:04:53;34.52;31.40;37.66;;
72160;Laerm;60045;51.792;10.938;2023-08-21T01:07:18;34.98;30.82;39.48;;
72160;Laerm;60045;51.792;10.938;2023-08-21T01:12:29;30.26;28.90;35.89;;
72160;Laerm;60045;51.792;10.938;2023-08-21T01:15:03;31.77;29.61;38.26;;
72160;Laerm;60045;51.792;10.938;2023-08-21T01:17:29;31.69;29.29;44.03;;
72160;Laerm;60045;51.792;10.938;2023-08-21T01:19:55;53.68;30.25;71.37;;
72160;Laerm;60045;51.792;10.938;2023-08-21T01:22:28;41.50;36.56;51.54;;
72160;Laerm;60045;51.792;10.938;2023-08-21T01:25:00;48.21;29.18;64.30;;
72160;Laerm;60045;51.792;10.938;2023-08-21T01:27:26;31.09;28.65;46.87;;
72160;Laerm;60045;51.792;10.938;2023-08-21T01:29:51;32.40;28.80;43.32;;
72160;Laerm;60045;51.792;10.938;2023-08-21T01:34:43;30.35;29.39;39.08;;
72160;Laerm;60045;51.792;10.938;2023-08-21T01:37:09;36.43;29.49;59.04;;
72160;Laerm;60045;51.792;10.938;2023-08-21T01:39:36;32.59;29.27;39.48;;
72160;Laerm;60045;51.792;10.938;2023-08-21T01:42:01;30.75;29.07;37.90;;
72160;Laerm;60045;51.792;10.938;2023-08-21T01:44:27;31.07;29.57;33.30;;
72160;Laerm;60045;51.792;10.938;2023-08-21T01:46:53;32.09;29.94;41.03;;
72160;Laerm;60045;51.792;10.938;2023-08-21T01:49:19;30.51;28.80;36.51;;
72160;Laerm;60045;51.792;10.938;2023-08-21T01:51:45;50.84;29.09;67.10;;
72160;Laerm;60045;51.792;10.938;2023-08-21T01:54:10;35.43;29.24;54.04;;
72160;Laerm;60045;51.792;10.938;2023-08-21T01:56:36;30.55;29.06;34.45;;
72160;Laerm;60045;51.792;10.938;2023-08-21T01:59:03;30.78;28.89;39.62;;
72160;Laerm;60045;51.792;10.938;2023-08-21T02:01:29;31.77;29.63;38.26;;
72160;Laerm;60045;51.792;10.938;2023-08-21T02:03:55;61.38;29.98;80.08;;
72160;Laerm;60045;51.792;10.938;2023-08-21T02:06:20;52.56;30.68;70.96;;
72160;Laerm;60045;51.792;10.938;2023-08-21T02:08:46;51.09;29.60;68.72;;
72160;Laerm;60045;51.792;10.938;2023-08-21T02:11:12;36.25;30.66;46.61;;
72160;Laerm;60045;51.792;10.938;2023-08-21T02:13:38;61.31;30.50;78.27;;
72160;Laerm;60045;51.792;10.938;2023-08-21T02:16:03;31.63;29.69;35.64;;
72160;Laerm;60045;51.792;10.938;2023-08-21T02:18:29;32.26;29.96;35.80;;
72160;Laerm;60045;51.792;10.938;2023-08-21T02:20:55;31.56;29.20;38.78;;
72160;Laerm;60045;51.792;10.938;2023-08-21T02:23:20;30.01;28.82;32.40;;
72160;Laerm;60045;51.792;10.938;2023-08-21T02:25:46;31.26;28.99;38.83;;
72160;Laerm;60045;51.792;10.938;2023-08-21T02:28:14;30.01;28.63;36.01;;
72160;Laerm;60045;51.792;10.938;2023-08-21T02:30:40;52.37;29.21;71.24;;
72160;Laerm;60045;51.792;10.938;2023-08-21T02:33:06;54.14;28.61;70.93;;
72160;Laerm;60045;51.792;10.938;2023-08-21T02:35:31;50.69;28.66;66.90;;
72160;Laerm;60045;51.792;10.938;2023-08-21T02:37:57;29.85;28.08;37.11;;
72160;Laerm;60045;51.792;10.938;2023-08-21T02:40:23;53.69;28.27;69.09;;
72160;Laerm;60045;51.792;10.938;2023-08-21T02:42:48;52.20;28.27;70.34;;
72160;Laerm;60045;51.792;10.938;2023-08-21T02:45:14;50.38;28.25;67.31;;
72160;Laerm;60045;51.792;10.938;2023-08-21T02:47:40;29.35;27.80;47.21;;
72160;Laerm;60045;51.792;10.938;2023-08-21T02:50:06;54.93;28.35;69.92;;
72160;Laerm;60045;51.792;10.938;2023-08-21T02:52:33;31.28;28.18;46.49;;
72160;Laerm;60045;51.792;10.938;2023-08-21T02:54:59;28.87;27.99;33.18;;
72160;Laerm;60045;51.792;10.938;2023-08-21T02:57:25;59.35;28.07;75.27;;
72160;Laerm;60045;51.792;10.938;2023-08-21T02:59:51;31.20;27.75;43.79;;
72160;Laerm;60045;51.792;10.938;2023-08-21T03:02:17;50.74;27.68;67.23;;
72160;Laerm;60045;51.792;10.938;2023-08-21T03:04:43;29.28;27.67;36.12;;
72160;Laerm;60045;51.792;10.938;2023-08-21T03:07:09;61.42;33.37;78.27;;
72160;Laerm;60045;51.792;10.938;2023-08-21T03:09:37;56.09;28.52;71.74;;
72160;Laerm;60045;51.792;10.938;2023-08-21T03:12:03;59.02;29.49;73.19;;
72160;Laerm;60045;51.792;10.938;2023-08-21T03:14:28;54.28;29.37;70.81;;
72160;Laerm;60045;51.792;10.938;2023-08-21T03:16:54;56.70;29.27;70.43;;
72160;Laerm;60045;51.792;10.938;2023-08-21T03:19:20;49.03;28.80;65.33;;
72160;Laerm;60045;51.792;10.938;2023-08-21T03:21:46;54.86;29.66;71.67;;
72160;Laerm;60045;51.792;10.938;2023-08-21T03:24:12;57.51;29.35;69.68;;
72160;Laerm;60045;51.792;10.938;2023-08-21T03:26:38;55.99;29.64;72.62;;
72160;Laerm;60045;51.792;10.938;2023-08-21T03:29:04;56.84;29.76;70.81;;
72160;Laerm;60045;51.792;10.938;2023-08-21T03:31:30;58.21;30.06;73.18;;
72160;Laerm;60045;51.792;10.938;2023-08-21T03:33:56;58.76;31.58;73.46;;
72160;Laerm;60045;51.792;10.938;2023-08-21T03:36:22;61.95;29.69;79.09;;
72160;Laerm;60045;51.792;10.938;2023-08-21T03:38:56;59.30;32.71;74.98;;
72160;Laerm;60045;51.792;10.938;2023-08-21T03:41:22;60.12;31.39;79.19;;
72160;Laerm;60045;51.792;10.938;2023-08-21T03:43:47;65.96;33.73;81.05;;
72160;Laerm;60045;51.792;10.938;2023-08-21T03:46:13;62.64;32.01;79.59;;
72160;Laerm;60045;51.792;10.938;2023-08-21T03:48:39;58.46;31.18;71.01;;
72160;Laerm;60045;51.792;10.938;2023-08-21T03:51:04;60.18;32.25;72.00;;
72160;Laerm;60045;51.792;10.938;2023-08-21T03:53:30;59.84;33.47;78.15;;
72160;Laerm;60045;51.792;10.938;2023-08-21T03:55:56;57.32;30.92;70.27;;
72160;Laerm;60045;51.792;10.938;2023-08-21T03:58:22;60.92;31.59;72.06;;
72160;Laerm;60045;51.792;10.938;2023-08-21T04:00:47;57.31;29.87;72.99;;
72160;Laerm;60045;51.792;10.938;2023-08-21T04:03:13;59.90;32.02;74.83;;
72160;Laerm;60045;51.792;10.938;2023-08-21T04:05:39;59.43;33.21;72.73;;
72160;Laerm;60045;51.792;10.938;2023-08-21T04:08:04;59.66;32.23;73.94;;
72160;Laerm;60045;51.792;10.938;2023-08-21T04:10:30;52.26;31.20;68.81;;
72160;Laerm;60045;51.792;10.938;2023-08-21T04:12:56;57.46;32.39;69.80;;
72160;Laerm;60045;51.792;10.938;2023-08-21T04:15:22;64.82;33.76;80.70;;
72160;Laerm;60045;51.792;10.938;2023-08-21T04:17:47;63.91;33.07;76.79;;
72160;Laerm;60045;51.792;10.938;2023-08-21T04:20:13;63.59;35.05;77.71;;
72160;Laerm;60045;51.792;10.938;2023-08-21T04:22:39;62.79;32.04;77.36;;
72160;Laerm;60045;51.792;10.938;2023-08-21T04:25:05;58.32;35.24;72.67;;
72160;Laerm;60045;51.792;10.938;2023-08-21T04:27:31;58.48;33.17;70.79;;
72160;Laerm;60045;51.792;10.938;2023-08-21T04:29:58;65.73;35.10;80.69;;
72160;Laerm;60045;51.792;10.938;2023-08-21T04:32:24;60.13;33.45;74.50;;
72160;Laerm;60045;51.792;10.938;2023-08-21T04:34:50;62.28;35.80;76.95;;
72160;Laerm;60045;51.792;10.938;2023-08-21T04:37:16;59.70;34.36;71.43;;
72160;Laerm;60045;51.792;10.938;2023-08-21T04:39:42;65.54;36.93;81.89;;
72160;Laerm;60045;51.792;10.938;2023-08-21T04:42:08;62.96;34.09;75.21;;
72160;Laerm;60045;51.792;10.938;2023-08-21T04:44:33;61.37;33.11;74.75;;
72160;Laerm;60045;51.792;10.938;2023-08-21T04:47:17;60.41;33.58;73.73;;
72160;Laerm;60045;51.792;10.938;2023-08-21T04:49:44;55.89;32.53;75.73;;
72160;Laerm;60045;51.792;10.938;2023-08-21T04:52:09;64.25;36.83;77.45;;
72160;Laerm;60045;51.792;10.938;2023-08-21T04:54:35;60.95;31.71;75.80;;
72160;Laerm;60045;51.792;10.938;2023-08-21T04:57:01;62.29;33.97;72.61;;
72160;Laerm;60045;51.792;10.938;2023-08-21T04:59:26;58.25;32.70;71.04;;
72160;Laerm;60045;51.792;10.938;2023-08-21T05:01:52;63.63;36.29;80.02;;
72160;Laerm;60045;51.792;10.938;2023-08-21T05:04:18;57.74;32.41;69.93;;
72160;Laerm;60045;51.792;10.938;2023-08-21T05:06:44;65.91;39.72;82.25;;
72160;Laerm;60045;51.792;10.938;2023-08-21T05:09:09;62.31;32.40;78.43;;
72160;Laerm;60045;51.792;10.938;2023-08-21T05:11:35;62.57;36.81;73.31;;
72160;Laerm;60045;51.792;10.938;2023-08-21T05:14:01;58.79;35.47;69.13;;
72160;Laerm;60045;51.792;10.938;2023-08-21T05:16:27;59.75;34.13;72.96;;
72160;Laerm;60045;51.792;10.938;2023-08-21T05:18:53;66.49;33.70;84.33;;
72160;Laerm;60045;51.792;10.938;2023-08-21T05:21:18;62.25;31.37;77.98;;
72160;Laerm;60045;51.792;10.938;2023-08-21T05:23:45;63.25;34.14;79.93;;
72160;Laerm;60045;51.792;10.938;2023-08-21T05:26:10;55.93;31.76;70.96;;
72160;Laerm;60045;51.792;10.938;2023-08-21T05:28:36;62.66;33.49;73.22;;
72160;Laerm;60045;51.792;10.938;2023-08-21T05:31:02;61.09;36.14;74.26;;
72160;Laerm;60045;51.792;10.938;2023-08-21T05:33:28;67.98;33.36;80.62;;
72160;Laerm;60045;51.792;10.938;2023-08-21T05:35:53;58.27;32.87;72.09;;
72160;Laerm;60045;51.792;10.938;2023-08-21T05:38:19;59.89;31.88;74.08;;
72160;Laerm;60045;51.792;10.938;2023-08-21T05:40:45;64.35;40.88;75.93;;
72160;Laerm;60045;51.792;10.938;2023-08-21T05:43:10;68.72;42.00;83.23;;
72160;Laerm;60045;51.792;10.938;2023-08-21T05:45:36;62.51;35.06;79.60;;
72160;Laerm;60045;51.792;10.938;2023-08-21T05:48:02;60.06;32.60;73.05;;
72160;Laerm;60045;51.792;10.938;2023-08-21T05:50:28;63.74;35.54;77.72;;
72160;Laerm;60045;51.792;10.938;2023-08-21T05:52:54;62.79;33.06;74.01;;
72160;Laerm;60045;51.792;10.938;2023-08-21T05:55:20;57.48;31.48;72.21;;
72160;Laerm;60045;51.792;10.938;2023-08-21T05:57:46;49.91;31.32;65.75;;
72160;Laerm;60045;51.792;10.938;2023-08-21T06:00:12;57.59;31.31;71.44;;
72160;Laerm;60045;51.792;10.938;2023-08-21T06:02:38;65.91;37.73;81.45;;
72160;Laerm;60045;51.792;10.938;2023-08-21T06:05:03;49.41;32.06;65.10;;
72160;Laerm;60045;51.792;10.938;2023-08-21T06:07:29;61.71;33.61;75.99;;
72160;Laerm;60045;51.792;10.938;2023-08-21T06:09:55;62.56;40.51;73.42;;
72160;Laerm;60045;51.792;10.938;2023-08-21T06:12:23;61.44;35.48;73.18;;
72160;Laerm;60045;51.792;10.938;2023-08-21T06:14:49;59.10;33.36;71.83;;
72160;Laerm;60045;51.792;10.938;2023-08-21T06:17:15;56.71;33.25;70.83;;
72160;Laerm;60045;51.792;10.938;2023-08-21T06:19:41;58.98;34.00;71.56;;
72160;Laerm;60045;51.792;10.938;2023-08-21T06:22:07;51.25;30.11;67.74;;
72160;Laerm;60045;51.792;10.938;2023-08-21T06:24:35;53.11;30.15;68.95;;
72160;Laerm;60045;51.792;10.938;2023-08-21T06:27:01;58.82;31.64;71.42;;
72160;Laerm;60045;51.792;10.938;2023-08-21T06:29:27;63.72;35.60;80.50;;
72160;Laerm;60045;51.792;10.938;2023-08-21T06:31:53;57.19;35.96;69.66;;
72160;Laerm;60045;51.792;10.938;2023-08-21T06:34:19;60.57;31.15;74.43;;
72160;Laerm;60045;51.792;10.938;2023-08-21T06:36:44;63.17;30.34;80.41;;
72160;Laerm;60045;51.792;10.938;2023-08-21T06:39:10;61.25;30.95;78.76;;
72160;Laerm;60045;51.792;10.938;2023-08-21T06:41:36;58.14;34.54;70.80;;
72160;Laerm;60045;51.792;10.938;2023-08-21T06:44:02;65.09;35.97;79.44;;
72160;Laerm;60045;51.792;10.938;2023-08-21T06:46:28;61.21;32.83;72.23;;
72160;Laerm;60045;51.792;10.938;2023-08-21T06:48:54;53.33;28.83;70.79;;
72160;Laerm;60045;51.792;10.938;2023-08-21T06:51:19;54.13;29.80;72.66;;
72160;Laerm;60045;51.792;10.938;2023-08-21T06:53:45;64.78;37.43;77.66;;
72160;Laerm;60045;51.792;10.938;2023-08-21T06:56:11;61.20;36.80;74.54;;
72160;Laerm;60045;51.792;10.938;2023-08-21T06:58:37;60.78;33.75;75.73;;
72160;Laerm;60045;51.792;10.938;2023-08-21T07:01:03;61.45;36.61;72.67;;
72160;Laerm;60045;51.792;10.938;2023-08-21T07:03:29;64.03;35.26;79.74;;
72160;Laerm;60045;51.792;10.938;2023-08-21T07:05:55;68.93;37.81;89.52;;
72160;Laerm;60045;51.792;10.938;2023-08-21T07:08:21;61.96;32.33;75.37;;
72160;Laerm;60045;51.792;10.938;2023-08-21T07:10:47;62.06;36.02;74.78;;
72160;Laerm;60045;51.792;10.938;2023-08-21T07:13:13;57.98;32.70;73.94;;
72160;Laerm;60045;51.792;10.938;2023-08-21T07:15:39;65.92;32.33;82.26;;
72160;Laerm;60045;51.792;10.938;2023-08-21T07:18:04;63.04;35.13;76.99;;
72160;Laerm;60045;51.792;10.938;2023-08-21T07:20:30;58.89;33.37;78.27;;
72160;Laerm;60045;51.792;10.938;2023-08-21T07:22:56;62.63;31.17;78.88;;
72160;Laerm;60045;51.792;10.938;2023-08-21T07:25:22;56.27;33.70;67.76;;
72160;Laerm;60045;51.792;10.938;2023-08-21T07:27:51;66.14;36.96;79.39;;
72160;Laerm;60045;51.792;10.938;2023-08-21T07:30:18;53.27;31.28;67.63;;
72160;Laerm;60045;51.792;10.938;2023-08-21T07:32:44;59.83;34.92;72.65;;
72160;Laerm;60045;51.792;10.938;2023-08-21T07:35:10;65.34;37.43;82.07;;
72160;Laerm;60045;51.792;10.938;2023-08-21T07:37:36;56.54;37.35;67.13;;
72160;Laerm;60045;51.792;10.938;2023-08-21T07:40:01;58.86;34.91;73.06;;
72160;Laerm;60045;51.792;10.938;2023-08-21T07:42:27;66.23;29.01;78.55;;
72160;Laerm;60045;51.792;10.938;2023-08-21T07:44:53;58.16;29.06;68.44;;
72160;Laerm;60045;51.792;10.938;2023-08-21T07:47:19;63.45;39.69;75.45;;
72160;Laerm;60045;51.792;10.938;2023-08-21T07:49:45;59.61;31.46;73.67;;
72160;Laerm;60045;51.792;10.938;2023-08-21T07:52:10;58.29;33.90;70.29;;
72160;Laerm;60045;51.792;10.938;2023-08-21T07:54:36;61.50;35.24;76.63;;
72160;Laerm;60045;51.792;10.938;2023-08-21T07:57:02;65.07;32.73;79.50;;
72160;Laerm;60045;51.792;10.938;2023-08-21T07:59:29;63.46;29.67;80.12;;
72160;Laerm;60045;51.792;10.938;2023-08-21T08:01:54;62.36;30.38;79.51;;
72160;Laerm;60045;51.792;10.938;2023-08-21T08:04:20;56.33;32.55;69.02;;
72160;Laerm;60045;51.792;10.938;2023-08-21T08:06:46;67.98;35.56;86.52;;
72160;Laerm;60045;51.792;10.938;2023-08-21T08:09:12;64.16;34.12;77.77;;
72160;Laerm;60045;51.792;10.938;2023-08-21T08:11:38;59.20;34.08;76.54;;
72160;Laerm;60045;51.792;10.938;2023-08-21T08:14:03;59.21;34.30;72.26;;
72160;Laerm;60045;51.792;10.938;2023-08-21T08:16:29;59.63;35.23;70.34;;
72160;Laerm;60045;51.792;10.938;2023-08-21T08:18:55;57.74;32.15;69.69;;
72160;Laerm;60045;51.792;10.938;2023-08-21T08:21:21;59.19;32.11;71.53;;
72160;Laerm;60045;51.792;10.938;2023-08-21T08:23:47;58.09;32.95;70.34;;
72160;Laerm;60045;51.792;10.938;2023-08-21T08:26:12;67.16;45.86;80.63;;
72160;Laerm;60045;51.792;10.938;2023-08-21T08:28:38;63.52;33.57;79.35;;
72160;Laerm;60045;51.792;10.938;2023-08-21T08:31:04;60.94;32.59;72.11;;
72160;Laerm;60045;51.792;10.938;2023-08-21T08:33:30;67.12;39.87;82.95;;
72160;Laerm;60045;51.792;10.938;2023-08-21T08:35:56;66.75;33.58;80.93;;
72160;Laerm;60045;51.792;10.938;2023-08-21T08:38:21;61.01;35.99;71.64;;
72160;Laerm;60045;51.792;10.938;2023-08-21T08:40:47;59.90;34.86;72.88;;
72160;Laerm;60045;51.792;10.938;2023-08-21T08:43:13;62.29;33.87;73.66;;
72160;Laerm;60045;51.792;10.938;2023-08-21T08:45:40;62.37;35.77;74.78;;
72160;Laerm;60045;51.792;10.938;2023-08-21T08:48:06;62.55;37.51;78.84;;
72160;Laerm;60045;51.792;10.938;2023-08-21T08:50:33;64.71;33.60;81.80;;
72160;Laerm;60045;51.792;10.938;2023-08-21T08:52:59;61.61;36.44;74.83;;
72160;Laerm;60045;51.792;10.938;2023-08-21T08:55:25;58.04;32.40;72.61;;
72160;Laerm;60045;51.792;10.938;2023-08-21T08:57:52;64.95;32.33;79.69;;
72160;Laerm;60045;51.792;10.938;2023-08-21T09:00:18;64.60;31.83;76.88;;
72160;Laerm;60045;51.792;10.938;2023-08-21T09:02:44;62.18;31.49;77.61;;
72160;Laerm;60045;51.792;10.938;2023-08-21T09:05:10;60.32;33.30;71.81;;
72160;Laerm;60045;51.792;10.938;2023-08-21T09:07:37;61.24;34.39;77.14;;
72160;Laerm;60045;51.792;10.938;2023-08-21T09:10:03;59.27;35.29;69.91;;
72160;Laerm;60045;51.792;10.938;2023-08-21T09:12:31;65.34;39.00;80.35;;
72160;Laerm;60045;51.792;10.938;2023-08-21T09:14:57;56.68;33.35;71.15;;
72160;Laerm;60045;51.792;10.938;2023-08-21T09:17:24;64.03;34.48;79.99;;
72160;Laerm;60045;51.792;10.938;2023-08-21T09:19:49;62.29;37.83;71.70;;
72160;Laerm;60045;51.792;10.938;2023-08-21T09:22:16;56.89;32.42;72.07;;
72160;Laerm;60045;51.792;10.938;2023-08-21T09:25:02;63.58;39.62;78.68;;
72160;Laerm;60045;51.792;10.938;2023-08-21T09:27:30;55.62;30.96;70.66;;
72160;Laerm;60045;51.792;10.938;2023-08-21T09:29:57;64.60;41.03;79.78;;
72160;Laerm;60045;51.792;10.938;2023-08-21T09:32:22;67.79;40.24;82.93;;
72160;Laerm;60045;51.792;10.938;2023-08-21T09:34:48;65.87;41.80;78.72;;
72160;Laerm;60045;51.792;10.938;2023-08-21T09:37:16;56.74;31.46;69.57;;
72160;Laerm;60045;51.792;10.938;2023-08-21T09:39:42;65.53;37.83;78.80;;
72160;Laerm;60045;51.792;10.938;2023-08-21T09:42:09;55.70;31.35;68.12;;
72160;Laerm;60045;51.792;10.938;2023-08-21T09:44:36;60.16;33.63;71.97;;
72160;Laerm;60045;51.792;10.938;2023-08-21T09:47:02;55.57;32.85;68.03;;
72160;Laerm;60045;51.792;10.938;2023-08-21T09:49:28;57.84;36.18;70.92;;
72160;Laerm;60045;51.792;10.938;2023-08-21T09:51:54;67.68;38.09;83.83;;
72160;Laerm;60045;51.792;10.938;2023-08-21T09:54:21;58.16;33.88;70.39;;
72160;Laerm;60045;51.792;10.938;2023-08-21T09:56:46;62.57;37.28;74.17;;
72160;Laerm;60045;51.792;10.938;2023-08-21T09:59:14;65.53;39.10;80.08;;
72160;Laerm;60045;51.792;10.938;2023-08-21T10:01:40;57.30;35.12;72.51;;
72160;Laerm;60045;51.792;10.938;2023-08-21T10:04:06;58.17;34.17;71.01;;
72160;Laerm;60045;51.792;10.938;2023-08-21T10:06:33;53.38;31.23;71.13;;
72160;Laerm;60045;51.792;10.938;2023-08-21T10:08:59;57.27;34.88;70.88;;
72160;Laerm;60045;51.792;10.938;2023-08-21T10:11:25;63.99;35.55;80.31;;
72160;Laerm;60045;51.792;10.938;2023-08-21T10:13:51;57.19;32.37;71.89;;
72160;Laerm;60045;51.792;10.938;2023-08-21T10:16:17;64.91;38.51;81.54;;
72160;Laerm;60045;51.792;10.938;2023-08-21T10:18:44;60.80;33.06;71.29;;
72160;Laerm;60045;51.792;10.938;2023-08-21T10:21:11;59.44;31.85;72.11;;
72160;Laerm;60045;51.792;10.938;2023-08-21T10:23:37;62.67;34.51;75.07;;
72160;Laerm;60045;51.792;10.938;2023-08-21T10:26:07;56.20;32.65;69.89;;
72160;Laerm;60045;51.792;10.938;2023-08-21T10:33:52;64.27;37.88;78.29;;
72160;Laerm;60045;51.792;10.938;2023-08-21T10:39:02;58.93;35.88;70.92;;
72160;Laerm;60045;51.792;10.938;2023-08-21T10:41:29;61.37;34.29;72.76;;
72160;Laerm;60045;51.792;10.938;2023-08-21T10:43:55;55.81;35.11;69.65;;
72160;Laerm;60045;51.792;10.938;2023-08-21T10:46:21;59.50;33.57;76.16;;
72160;Laerm;60045;51.792;10.938;2023-08-21T10:48:47;65.53;38.07;76.60;;
72160;Laerm;60045;51.792;10.938;2023-08-21T10:51:12;63.09;37.61;79.35;;
72160;Laerm;60045;51.792;10.938;2023-08-21T10:53:38;57.90;34.37;74.03;;
72160;Laerm;60045;51.792;10.938;2023-08-21T10:56:06;59.20;31.97;70.30;;
72160;Laerm;60045;51.792;10.938;2023-08-21T10:58:37;60.34;33.98;72.08;;
72160;Laerm;60045;51.792;10.938;2023-08-21T11:01:04;64.77;30.75;80.15;;
72160;Laerm;60045;51.792;10.938;2023-08-21T11:03:30;62.15;30.85;72.49;;
72160;Laerm;60045;51.792;10.938;2023-08-21T11:06:02;64.68;36.95;80.09;;
72160;Laerm;60045;51.792;10.938;2023-08-21T11:08:28;65.91;37.05;82.94;;
72160;Laerm;60045;51.792;10.938;2023-08-21T11:10:54;62.13;34.45;73.81;;
72160;Laerm;60045;51.792;10.938;2023-08-21T11:13:23;69.57;44.01;83.60;;
72160;Laerm;60045;51.792;10.938;2023-08-21T11:15:48;55.42;34.27;68.51;;
72160;Laerm;60045;51.792;10.938;2023-08-21T11:18:14;58.53;33.66;72.60;;
72160;Laerm;60045;51.792;10.938;2023-08-21T11:20:40;58.37;33.31;71.46;;
72160;Laerm;60045;51.792;10.938;2023-08-21T11:23:06;58.85;36.31;69.53;;
72160;Laerm;60045;51.792;10.938;2023-08-21T11:25:33;62.55;36.45;74.54;;
72160;Laerm;60045;51.792;10.938;2023-08-21T11:27:59;63.23;35.36;76.44;;
72160;Laerm;60045;51.792;10.938;2023-08-21T11:30:26;66.39;37.76;80.87;;
72160;Laerm;60045;51.792;10.938;2023-08-21T11:33:08;60.48;34.33;74.60;;
72160;Laerm;60045;51.792;10.938;2023-08-21T11:35:34;62.51;35.85;81.85;;
72160;Laerm;60045;51.792;10.938;2023-08-21T11:37:59;58.98;33.08;70.93;;
72160;Laerm;60045;51.792;10.938;2023-08-21T11:40:25;60.21;34.44;72.06;;
72160;Laerm;60045;51.792;10.938;2023-08-21T11:42:51;63.20;32.49;77.54;;
72160;Laerm;60045;51.792;10.938;2023-08-21T11:45:19;62.88;35.46;75.78;;
72160;Laerm;60045;51.792;10.938;2023-08-21T11:47:45;66.71;38.74;84.07;;
72160;Laerm;60045;51.792;10.938;2023-08-21T11:50:11;59.02;40.47;70.21;;
72160;Laerm;60045;51.792;10.938;2023-08-21T11:52:38;63.67;35.95;75.23;;
72160;Laerm;60045;51.792;10.938;2023-08-21T11:55:08;59.10;33.06;70.93;;
72160;Laerm;60045;51.792;10.938;2023-08-21T11:57:45;59.14;33.68;72.99;;
72160;Laerm;60045;51.792;10.938;2023-08-21T12:00:11;59.77;36.35;73.60;;
72160;Laerm;60045;51.792;10.938;2023-08-21T12:02:37;62.73;34.44;74.69;;
72160;Laerm;60045;51.792;10.938;2023-08-21T12:05:03;66.00;37.34;81.09;;
72160;Laerm;60045;51.792;10.938;2023-08-21T12:07:30;59.23;33.43;71.81;;
72160;Laerm;60045;51.792;10.938;2023-08-21T12:27:54;64.12;30.94;79.04;;
72160;Laerm;60045;51.792;10.938;2023-08-21T12:30:19;55.69;30.40;68.26;;
72160;Laerm;60045;51.792;10.938;2023-08-21T12:32:46;61.19;35.64;70.94;;
72160;Laerm;60045;51.792;10.938;2023-08-21T12:35:11;64.98;35.22;78.59;;
72160;Laerm;60045;51.792;10.938;2023-08-21T12:37:37;62.03;36.08;74.82;;
72160;Laerm;60045;51.792;10.938;2023-08-21T12:40:03;67.87;38.40;89.50;;
72160;Laerm;60045;51.792;10.938;2023-08-21T12:42:29;67.31;39.88;79.84;;
72160;Laerm;60045;51.792;10.938;2023-08-21T12:44:55;60.38;32.23;73.13;;
72160;Laerm;60045;51.792;10.938;2023-08-21T12:47:21;60.83;34.01;72.90;;
72160;Laerm;60045;51.792;10.938;2023-08-21T12:49:46;63.67;32.87;85.94;;
72160;Laerm;60045;51.792;10.938;2023-08-21T12:52:12;62.71;38.40;70.90;;
72160;Laerm;60045;51.792;10.938;2023-08-21T12:54:38;63.18;36.70;72.10;;
72160;Laerm;60045;51.792;10.938;2023-08-21T12:57:04;63.35;35.22;74.54;;
72160;Laerm;60045;51.792;10.938;2023-08-21T12:59:30;57.54;31.85;75.06;;
72160;Laerm;60045;51.792;10.938;2023-08-21T13:01:58;65.24;36.47;79.73;;
72160;Laerm;60045;51.792;10.938;2023-08-21T13:04:23;62.58;37.11;72.68;;
72160;Laerm;60045;51.792;10.938;2023-08-21T13:06:49;59.98;35.49;71.41;;
72160;Laerm;60045;51.792;10.938;2023-08-21T13:09:15;60.11;35.42;71.87;;
72160;Laerm;60045;51.792;10.938;2023-08-21T13:11:44;64.99;35.93;79.48;;
72160;Laerm;60045;51.792;10.938;2023-08-21T13:14:09;58.83;34.17;73.84;;
72160;Laerm;60045;51.792;10.938;2023-08-21T13:16:35;65.56;39.09;76.96;;
72160;Laerm;60045;51.792;10.938;2023-08-21T13:19:01;64.40;36.64;74.72;;
72160;Laerm;60045;51.792;10.938;2023-08-21T13:21:27;60.41;35.48;72.13;;
72160;Laerm;60045;51.792;10.938;2023-08-21T13:23:52;61.38;35.24;73.89;;
72160;Laerm;60045;51.792;10.938;2023-08-21T13:26:19;62.25;36.72;72.69;;
72160;Laerm;60045;51.792;10.938;2023-08-21T13:28:45;62.84;36.30;77.08;;
72160;Laerm;60045;51.792;10.938;2023-08-21T13:31:10;65.96;38.82;80.72;;
72160;Laerm;60045;51.792;10.938;2023-08-21T13:33:51;58.75;36.03;70.15;;
72160;Laerm;60045;51.792;10.938;2023-08-21T13:36:18;61.99;33.58;72.06;;
72160;Laerm;60045;51.792;10.938;2023-08-21T13:38:45;65.08;38.38;82.37;;
72160;Laerm;60045;51.792;10.938;2023-08-21T13:41:11;63.81;35.99;77.66;;
72160;Laerm;60045;51.792;10.938;2023-08-21T13:43:37;61.26;37.58;72.93;;
72160;Laerm;60045;51.792;10.938;2023-08-21T13:46:03;62.05;40.11;73.66;;
72160;Laerm;60045;51.792;10.938;2023-08-21T13:48:29;62.19;39.77;73.85;;
72160;Laerm;60045;51.792;10.938;2023-08-21T13:50:55;58.79;40.05;71.66;;
72160;Laerm;60045;51.792;10.938;2023-08-21T13:53:21;63.04;37.59;74.91;;
72160;Laerm;60045;51.792;10.938;2023-08-21T13:55:47;64.12;41.33;76.31;;
72160;Laerm;60045;51.792;10.938;2023-08-21T13:58:13;66.81;41.23;84.78;;